createdAt,value
2022-12-03T00:00:36.953Z,102124.38
2022-12-03T00:03:03.635Z,102126.97
2022-12-03T00:05:30.168Z,102130.50
2022-12-03T00:07:56.774Z,102120.88
2022-12-03T00:10:23.204Z,102127.88
2022-12-03T00:12:49.589Z,102117.38
2022-12-03T00:15:15.947Z,102116.47
2022-12-03T00:17:42.307Z,102114.75
2022-12-03T00:20:09.367Z,102117.34
2022-12-03T00:22:35.976Z,102108.59
2022-12-03T00:25:02.395Z,102116.50
2022-12-03T00:27:29.058Z,102124.38
2022-12-03T00:29:55.502Z,102120.00
2022-12-03T00:32:21.856Z,102110.34
2022-12-03T00:34:48.247Z,102108.63
2022-12-03T00:37:14.622Z,102119.97
2022-12-03T00:39:41.012Z,102114.72
2022-12-03T00:42:07.426Z,102110.38
2022-12-03T00:44:33.868Z,102108.59
2022-12-03T00:47:00.398Z,102114.75
2022-12-03T00:49:26.969Z,102113.88
2022-12-03T00:51:53.333Z,102114.75
2022-12-03T00:54:19.742Z,102114.72
2022-12-03T00:56:46.189Z,102103.34
2022-12-03T00:59:12.576Z,102099.84
2022-12-03T01:01:38.991Z,102117.31
2022-12-03T01:04:05.428Z,102114.72
2022-12-03T01:06:31.854Z,102113.88
2022-12-03T01:08:58.398Z,102122.66
2022-12-03T01:11:41.296Z,102105.13
2022-12-03T01:14:15.269Z,102113.88
2022-12-03T01:16:41.907Z,102113.00
2022-12-03T01:19:10.539Z,102111.25
2022-12-03T01:21:37.471Z,102118.28
2022-12-03T01:24:04.431Z,102119.13
2022-12-03T01:26:31.102Z,102111.22
2022-12-03T01:28:57.663Z,102119.13
2022-12-03T01:31:43.112Z,102113.00
2022-12-03T01:34:09.584Z,102111.25
2022-12-03T01:36:35.988Z,102106.00
2022-12-03T01:39:03.199Z,102108.63
2022-12-03T01:41:29.769Z,102117.38
2022-12-03T01:43:56.838Z,102109.47
2022-12-03T01:46:24.773Z,102106.84
2022-12-03T01:48:52.876Z,102111.25
2022-12-03T01:51:19.309Z,102113.00
2022-12-03T01:53:46.148Z,102112.06
2022-12-03T01:56:13.657Z,102105.97
2022-12-03T01:58:40.435Z,102101.59
2022-12-03T02:01:10.115Z,102102.47
2022-12-03T02:03:37.343Z,102104.25
2022-12-03T02:06:04.451Z,102103.34
2022-12-03T02:08:35.117Z,102105.97
2022-12-03T02:11:03.472Z,102103.31
2022-12-03T02:20:19.891Z,102097.22
2022-12-03T02:23:06.700Z,102105.09
2022-12-03T02:25:34.644Z,102104.22
2022-12-03T02:28:01.842Z,102106.84
2022-12-03T02:30:29.154Z,102101.63
2022-12-03T02:32:56.106Z,102109.47
2022-12-03T02:35:24.329Z,102101.59
2022-12-03T02:37:54.874Z,102095.47
2022-12-03T02:40:26.063Z,102102.47
2022-12-03T02:42:55.598Z,102096.34
2022-12-03T02:45:24.180Z,102094.59
2022-12-03T02:47:52.844Z,102102.47
2022-12-03T02:50:21.660Z,102104.22
2022-12-03T02:52:48.583Z,102104.22
2022-12-03T02:55:16.125Z,102105.13
2022-12-03T02:57:44.730Z,102096.34
2022-12-03T03:00:11.741Z,102098.09
2022-12-03T03:02:39.947Z,102099.88
2022-12-03T03:05:07.360Z,102091.97
2022-12-03T03:07:34.428Z,102095.47
2022-12-03T03:10:01.526Z,102098.09
2022-12-03T03:12:28.109Z,102096.38
2022-12-03T03:14:54.789Z,102103.31
2022-12-03T03:17:21.483Z,102093.72
2022-12-03T03:19:51.209Z,102091.09
2022-12-03T03:22:19.055Z,102091.09
2022-12-03T03:24:45.495Z,102086.72
2022-12-03T03:27:11.941Z,102085.84
2022-12-03T03:29:40.444Z,102091.09
2022-12-03T03:32:06.892Z,102084.09
2022-12-03T03:34:33.727Z,102076.19
2022-12-03T03:37:00.158Z,102073.56
2022-12-03T03:39:27.406Z,102072.69
2022-12-03T03:41:53.864Z,102071.81
2022-12-03T03:44:20.339Z,102084.09
2022-12-03T03:46:46.927Z,102072.72
2022-12-03T03:49:16.266Z,102078.84
2022-12-03T03:51:42.856Z,102066.59
2022-12-03T03:54:10.622Z,102066.59
2022-12-03T03:56:37.203Z,102056.94
2022-12-03T03:59:04.361Z,102059.59
2022-12-03T04:01:34.031Z,102063.97
2022-12-03T04:04:00.984Z,102057.84
2022-12-03T04:06:27.854Z,102055.19
2022-12-03T04:08:54.268Z,102054.31
2022-12-03T04:11:39.433Z,102057.81
2022-12-03T04:14:05.808Z,102056.94
2022-12-03T04:16:32.204Z,102057.81
2022-12-03T04:18:58.702Z,102056.06
2022-12-03T04:21:43.742Z,102054.31
2022-12-03T04:24:10.932Z,102053.44
2022-12-03T04:26:56.050Z,102049.94
2022-12-03T04:29:22.969Z,102050.81
2022-12-03T04:32:07.978Z,102049.03
2022-12-03T04:34:53.259Z,102039.44
2022-12-03T04:37:21.403Z,102038.56
2022-12-03T04:39:50.273Z,102035.06
2022-12-03T04:42:16.821Z,102044.66
2022-12-03T04:44:43.532Z,102039.44
2022-12-03T04:47:11.562Z,102044.66
2022-12-03T04:49:40.175Z,102047.31
2022-12-03T04:52:07.050Z,102045.56
2022-12-03T04:54:33.875Z,102042.94
2022-12-03T04:57:00.396Z,102040.31
2022-12-03T04:59:27.145Z,102045.56
2022-12-03T05:01:53.674Z,102033.28
2022-12-03T05:04:20.617Z,102040.28
2022-12-03T05:06:47.302Z,102041.16
2022-12-03T05:09:14.172Z,102031.53
2022-12-03T05:11:42.340Z,102035.06
2022-12-03T05:14:09.499Z,102028.91
2022-12-03T05:16:39.340Z,102031.56
2022-12-03T05:19:09.147Z,102029.78
2022-12-03T05:21:54.981Z,102021.94
2022-12-03T05:24:21.631Z,102021.91
2022-12-03T05:26:48.344Z,102025.44
2022-12-03T05:29:15.122Z,102021.94
2022-12-03T05:31:41.727Z,102021.91
2022-12-03T05:34:08.188Z,102024.53
2022-12-03T05:36:34.811Z,102020.16
2022-12-03T05:39:01.480Z,102024.53
2022-12-03T05:41:47.708Z,102028.03
2022-12-03T05:44:20.115Z,102028.03
2022-12-03T05:46:46.986Z,102034.19
2022-12-03T05:49:13.416Z,102026.31
2022-12-03T05:51:39.902Z,102023.66
2022-12-03T05:54:06.354Z,102015.78
2022-12-03T05:56:32.815Z,102021.06
2022-12-03T05:58:59.304Z,102017.53
2022-12-03T06:01:25.696Z,102007.00
2022-12-03T06:03:52.831Z,102011.38
2022-12-03T06:06:19.386Z,102013.16
2022-12-03T06:08:45.797Z,102011.38
2022-12-03T06:11:12.248Z,102012.28
2022-12-03T06:13:41.707Z,102017.53
2022-12-03T06:16:08.626Z,102009.66
2022-12-03T06:18:38.338Z,102013.16
2022-12-03T06:21:05.086Z,102012.28
2022-12-03T06:23:35.197Z,102008.78
2022-12-03T06:26:02.063Z,102022.81
2022-12-03T06:28:28.758Z,102014.94
2022-12-03T06:30:55.960Z,102017.53
2022-12-03T06:33:22.606Z,102010.53
2022-12-03T06:35:49.218Z,102011.41
2022-12-03T06:38:15.852Z,102015.81
2022-12-03T06:40:44.565Z,102011.44
2022-12-03T06:43:16.185Z,102012.31
2022-12-03T06:45:47.564Z,102010.56
2022-12-03T06:48:15.098Z,102007.03
2022-12-03T06:50:41.672Z,102014.91
2022-12-03T06:53:08.650Z,102014.91
2022-12-03T06:55:35.597Z,102017.53
2022-12-03T06:58:05.042Z,102016.66
2022-12-03T07:00:39.590Z,102010.53
2022-12-03T07:03:06.588Z,102004.38
2022-12-03T07:05:37.713Z,102008.78
2022-12-03T07:11:48.365Z,102010.53
2022-12-03T07:14:15.367Z,102007.03
2022-12-03T07:16:45.494Z,102002.66
2022-12-03T07:19:33.006Z,102009.69
2022-12-03T07:22:06.671Z,102011.44
2022-12-03T07:24:35.759Z,102012.28
2022-12-03T07:27:09.669Z,102009.66
2022-12-03T07:29:37.829Z,102007.03
2022-12-03T07:32:19.233Z,102002.66
2022-12-03T07:34:48.459Z,102012.31
2022-12-03T07:37:22.672Z,102000.91
2022-12-03T07:39:52.876Z,102001.78
2022-12-03T07:42:37.432Z,102006.19
2022-12-03T07:45:20.900Z,102005.28
2022-12-03T07:48:16.743Z,102001.78
2022-12-03T07:51:32.830Z,102001.78
2022-12-03T07:54:01.226Z,102005.28
2022-12-03T07:56:27.650Z,102007.03
2022-12-03T07:58:58.776Z,102004.41
2022-12-03T08:01:25.429Z,102012.28
2022-12-03T08:03:51.992Z,102004.41
2022-12-03T08:06:18.673Z,102004.41
2022-12-03T08:08:45.147Z,102001.78
2022-12-03T08:11:25.931Z,102000.94
2022-12-03T08:13:53.017Z,101995.63
2022-12-03T08:16:21.492Z,101990.41
2022-12-03T08:18:57.705Z,101997.41
2022-12-03T08:21:24.596Z,101991.28
2022-12-03T08:23:51.449Z,101993.91
2022-12-03T08:26:28.512Z,101988.66
2022-12-03T08:29:04.692Z,101993.03
2022-12-03T08:31:41.270Z,101992.16
2022-12-03T08:34:16.767Z,101991.28
2022-12-03T08:36:43.892Z,101988.66
2022-12-03T08:39:31.209Z,101986.91
2022-12-03T08:42:32.312Z,101989.50
2022-12-03T08:45:18.962Z,101990.41
2022-12-03T08:47:45.611Z,101995.66
2022-12-03T08:50:26.747Z,101995.66
2022-12-03T08:52:55.952Z,101992.16
2022-12-03T08:56:04.440Z,101986.03
2022-12-03T08:58:36.996Z,101988.63
2022-12-03T09:01:16.544Z,101998.31
2022-12-03T09:04:01.931Z,101996.53
2022-12-03T09:06:28.981Z,101993.03
2022-12-03T09:09:07.848Z,101992.16
2022-12-03T09:15:03.024Z,101997.41
2022-12-03T09:17:29.711Z,101992.16
2022-12-03T09:19:56.167Z,101992.16
2022-12-03T09:22:22.846Z,101986.91
2022-12-03T09:24:49.281Z,101984.28
2022-12-03T09:27:18.976Z,101982.50
2022-12-03T09:29:45.771Z,101986.03
2022-12-03T09:32:17.945Z,101979.00
2022-12-03T09:34:44.912Z,101970.25
2022-12-03T09:37:17.869Z,101970.22
2022-12-03T09:39:44.454Z,101979.91
2022-12-03T09:42:13.094Z,101981.66
2022-12-03T09:44:54.679Z,101971.97
2022-12-03T09:47:28.478Z,101972.91
2022-12-03T09:49:56.879Z,101973.75
2022-12-03T09:52:30.968Z,101969.41
2022-12-03T09:55:02.800Z,101968.53
2022-12-03T10:08:19.007Z,101948.41
2022-12-03T10:10:56.217Z,101932.63
2022-12-03T10:13:28.710Z,101930.78
2022-12-03T10:23:00.105Z,101934.34
2022-12-03T10:58:24.319Z,101914.19
2022-12-03T11:01:11.254Z,101919.41
2022-12-03T11:03:40.630Z,101921.13
2022-12-03T11:09:36.148Z,101906.25
2022-12-03T11:12:06.544Z,101907.94
2022-12-03T11:14:55.016Z,101911.47
2022-12-03T11:17:49.993Z,101900.06
2022-12-03T11:20:25.667Z,101900.97
2022-12-03T11:22:53.083Z,101900.09
2022-12-03T11:25:27.814Z,101899.19
2022-12-03T11:28:15.840Z,101890.41
2022-12-03T11:30:51.582Z,101890.31
2022-12-03T11:33:22.035Z,101885.19
2022-12-03T11:36:05.069Z,101883.41
2022-12-03T11:38:37.786Z,101873.66
2022-12-03T11:41:24.910Z,101876.41
2022-12-03T11:43:57.663Z,101871.84
2022-12-03T11:46:36.786Z,101871.16
2022-12-03T11:49:05.540Z,101864.03
2022-12-03T11:51:38.361Z,101869.38
2022-12-03T11:54:08.420Z,101868.41
2022-12-03T11:56:36.546Z,101877.25
2022-12-03T11:59:12.845Z,101861.38
2022-12-03T12:01:40.965Z,101864.75
2022-12-03T12:04:08.694Z,101859.59
2022-12-03T12:06:42.705Z,101867.53
2022-12-03T12:09:09.998Z,101861.38
2022-12-03T12:11:40.052Z,101861.56
2022-12-03T12:14:07.888Z,101863.19
2022-12-03T12:16:42.649Z,101864.13
2022-12-03T12:19:27.992Z,101867.63
2022-12-03T12:21:54.821Z,101867.63
2022-12-03T12:24:33.650Z,101864.06
2022-12-03T12:27:06.723Z,101863.31
2022-12-03T12:29:33.599Z,101871.94
2022-12-03T12:32:20.312Z,101866.66
2022-12-03T12:34:47.892Z,101864.97
2022-12-03T12:37:32.023Z,101864.13
2022-12-03T12:39:58.798Z,101857.16
2022-12-03T12:42:30.462Z,101851.88
2022-12-03T12:44:58.840Z,101850.84
2022-12-03T12:47:25.422Z,101843.91
2022-12-03T12:49:55.328Z,101852.78
2022-12-03T12:52:22.091Z,101848.44
2022-12-03T12:54:51.340Z,101845.66
2022-12-03T13:01:08.762Z,101843.00
2022-12-03T13:03:37.229Z,101837.81
2022-12-03T13:06:04.183Z,101833.41
2022-12-03T13:08:38.843Z,101828.91
2022-12-03T13:11:05.857Z,101824.69
2022-12-03T13:13:43.601Z,101816.75
2022-12-03T13:16:44.767Z,101812.44
2022-12-03T13:19:23.590Z,101815.03
2022-12-03T13:22:04.738Z,101819.41
2022-12-03T13:24:36.760Z,101815.09
2022-12-03T13:27:23.925Z,101817.69
2022-12-03T13:29:55.365Z,101821.25
2022-12-03T13:32:23.296Z,101810.75
2022-12-03T13:34:58.507Z,101812.38
2022-12-03T13:37:28.462Z,101817.75
2022-12-03T13:39:58.823Z,101817.75
2022-12-03T13:49:23.172Z,101806.41
2022-12-03T13:51:50.506Z,101803.72
2022-12-03T13:54:21.908Z,101800.31
2022-12-03T13:56:48.864Z,101795.91
2022-12-03T13:59:19.299Z,101797.59
2022-12-03T14:01:48.337Z,101810.81
2022-12-03T14:04:15.385Z,101804.69
2022-12-03T14:06:41.965Z,101808.06
2022-12-03T14:09:08.432Z,101807.28
2022-12-03T14:11:53.630Z,101808.13
2022-12-03T14:14:20.186Z,101801.03
2022-12-03T14:16:47.887Z,101805.47
2022-12-03T14:19:17.330Z,101801.00
2022-12-03T14:21:43.808Z,101799.41
2022-12-03T14:24:12.449Z,101800.25
2022-12-03T14:26:38.913Z,101793.38
2022-12-03T14:29:08.761Z,101802.13
2022-12-03T14:31:35.774Z,101809.06
2022-12-03T14:34:02.476Z,101809.97
2022-12-03T14:36:28.935Z,101805.63
2022-12-03T14:38:55.463Z,101803.84
2022-12-03T14:41:43.033Z,101807.25
2022-12-03T14:44:09.571Z,101802.97
2022-12-03T14:46:36.131Z,101782.78
2022-12-03T14:49:02.593Z,101793.25
2022-12-03T14:51:29.324Z,101808.16
2022-12-03T14:53:55.884Z,101808.91
2022-12-03T14:56:22.489Z,101808.13
2022-12-03T14:58:49.397Z,101808.13
2022-12-03T15:01:18.850Z,101814.31
2022-12-03T15:03:51.624Z,101812.63
2022-12-03T15:46:46.225Z,101802.06
2022-12-03T15:49:19.038Z,101807.28
2022-12-03T15:52:07.282Z,101805.53
2022-12-03T16:08:22.919Z,101800.34
2022-12-03T16:11:01.760Z,101803.84
2022-12-03T16:13:31.077Z,101806.44
2022-12-03T16:15:57.768Z,101802.91
2022-12-03T16:18:27.043Z,101794.09
2022-12-03T16:20:56.923Z,101794.09
2022-12-03T16:23:47.427Z,101784.56
2022-12-03T16:26:14.195Z,101795.06
2022-12-03T16:28:40.932Z,101789.81
2022-12-03T16:31:10.484Z,101795.94
2022-12-03T16:33:42.912Z,101799.38
2022-12-03T16:36:10.134Z,101791.47
2022-12-03T16:41:19.857Z,101795.00
2022-12-03T16:44:38.549Z,101784.41
2022-12-03T16:47:05.314Z,101791.47
2022-12-03T16:49:44.900Z,101794.06
2022-12-03T16:52:25.177Z,101794.16
2022-12-03T16:54:52.408Z,101788.91
2022-12-03T16:57:53.515Z,101796.75
2022-12-03T17:00:34.889Z,101786.22
2022-12-03T17:06:39.439Z,101793.16
2022-12-03T17:09:05.927Z,101791.38
2022-12-03T17:41:06.097Z,101784.38
2022-12-03T18:19:49.719Z,101783.47
2022-12-03T18:22:33.528Z,101786.16
2022-12-03T18:57:52.770Z,101774.56
2022-12-03T19:17:28.530Z,101784.34
2022-12-03T19:19:55.696Z,101784.19
2022-12-03T19:22:22.806Z,101788.75
2022-12-03T19:24:50.180Z,101787.75
2022-12-03T19:27:16.707Z,101788.59
2022-12-03T19:29:43.362Z,101787.78
2022-12-03T19:32:10.061Z,101778.97
2022-12-03T19:34:40.677Z,101780.69
2022-12-03T19:37:18.100Z,101784.16
2022-12-03T19:39:51.361Z,101789.47
2022-12-03T19:42:17.911Z,101786.09
2022-12-03T19:44:49.295Z,101781.72
2022-12-03T19:47:15.820Z,101784.28
2022-12-03T19:49:45.328Z,101787.75
2022-12-03T19:52:11.881Z,101785.16
2022-12-03T19:54:38.390Z,101788.53
2022-12-03T19:57:05.293Z,101783.41
2022-12-03T19:59:31.805Z,101780.69
2022-12-03T20:01:58.431Z,101786.13
2022-12-03T20:04:32.329Z,101776.47
2022-12-03T20:07:14.317Z,101774.53
2022-12-03T20:10:16.741Z,101778.06
2022-12-03T20:13:22.954Z,101768.22
2022-12-03T20:18:51.783Z,101773.63
2022-12-03T20:21:47.840Z,101779.78
2022-12-03T20:24:33.186Z,101779.81
2022-12-03T20:27:14.701Z,101778.94
2022-12-03T20:29:44.094Z,101785.94
2022-12-03T20:32:13.715Z,101779.84
2022-12-03T20:34:42.232Z,101786.84
2022-12-03T20:37:11.546Z,101782.38
2022-12-03T20:42:58.046Z,101778.94
2022-12-03T20:45:33.609Z,101782.41
2022-12-03T20:50:55.721Z,101793.00
2022-12-03T20:53:39.843Z,101791.25
2022-12-03T20:56:55.729Z,101790.34
2022-12-03T20:59:43.583Z,101787.69
2022-12-03T21:05:27.750Z,101781.56
2022-12-03T21:08:40.456Z,101778.94
2022-12-03T21:18:16.146Z,101775.38
2022-12-03T21:21:17.741Z,101780.66
2022-12-03T21:26:45.699Z,101776.25
2022-12-03T21:29:30.752Z,101773.59
2022-12-03T21:39:08.849Z,101767.50
2022-12-03T21:42:35.435Z,101764.06
2022-12-03T21:51:20.260Z,101749.97
2022-12-03T21:56:33.003Z,101760.53
2022-12-03T21:59:33.433Z,101760.50
2022-12-03T22:02:17.756Z,101763.19
2022-12-03T22:08:07.731Z,101764.88
2022-12-03T22:10:40.662Z,101764.97
2022-12-03T22:13:09.868Z,101763.22
2022-12-03T22:15:40.010Z,101759.72
2022-12-03T22:18:07.681Z,101753.44
2022-12-03T22:20:34.214Z,101751.91
2022-12-03T22:23:00.918Z,101753.50
2022-12-03T22:25:27.484Z,101743.84
2022-12-03T22:27:54.251Z,101749.00
2022-12-03T22:30:20.896Z,101748.00
2022-12-03T22:32:51.958Z,101747.25
2022-12-03T22:35:18.762Z,101745.47
2022-12-03T22:37:45.717Z,101750.03
2022-12-03T22:40:15.944Z,101754.22
2022-12-03T22:42:47.785Z,101749.78
2022-12-03T22:45:19.509Z,101742.00
2022-12-03T22:47:46.262Z,101735.81
2022-12-03T22:50:12.784Z,101735.84
2022-12-03T22:52:39.342Z,101740.25
2022-12-03T22:55:07.873Z,101733.28
2022-12-03T22:57:34.855Z,101729.66
2022-12-03T23:00:01.621Z,101734.03
2022-12-03T23:02:28.530Z,101730.53
2022-12-03T23:05:02.229Z,101738.47
2022-12-03T23:07:29.045Z,101719.97
2022-12-03T23:09:56.797Z,101723.44
2022-12-03T23:12:26.448Z,101714.69
2022-12-03T23:14:55.551Z,101719.06
2022-12-03T23:17:22.695Z,101720.00
2022-12-03T23:19:54.701Z,101725.31
2022-12-03T23:22:30.588Z,101728.81
2022-12-03T23:24:57.574Z,101719.81
2022-12-03T23:27:27.505Z,101719.94
2022-12-03T23:30:00.731Z,101715.53
2022-12-03T23:32:40.049Z,101717.47
2022-12-03T23:35:07.575Z,101717.34
2022-12-03T23:37:34.638Z,101710.38
2022-12-03T23:40:03.186Z,101714.94
2022-12-03T23:42:30.788Z,101712.22
2022-12-03T23:45:00.531Z,101706.97
2022-12-03T23:47:27.253Z,101707.81
2022-12-03T23:49:54.271Z,101696.34
2022-12-03T23:52:21.322Z,101698.91
2022-12-03T23:57:42.243Z,101698.97
